Terminal Aerodrome Forecast
Issued by NWS Central Illinois

Home | Current Version | Previous Version | Text Only | Print | Product List | Glossary On
Versions: 1 2 3 4 5 6 7 8 9 10 11 12 13 14
000
FTUS43 KILX 262300 RRA
TAFSPI
TAF
KSPI 262350Z 2700/2724 17009KT P6SM FEW025
     FM270200 19012KT P6SM BKN025
     FM270600 18011KT 5SM -DZ BR OVC025 WS020/22035KT
      TEMPO 2711/2715 -RA OVC007
     FM271500 21012KT 5SM -DZ BR OVC007
     FM271800 26015KT P6SM VCSH OVC009
     FM272100 28014KT P6SM OVC012=

USA.gov is the U.S. government's official web portal to all federal, state and local government web resources and services.